JTC554 EGLF-CYYT
Flight info
| Callsign | JTC554 |
|---|---|
| Flight time | N/A |
| Altitude | 43000 |
| Route | HAZEL L620 SAM N19 ADKIK MOPAT LIMRI 52N020W 52N030W 51N040W 49N050W JOOPY MIVAD AVALN5 |
| Aircraft | C750/M-SBDE3FGHRWXY/S |
Departure
| Time | 2026-04-24 13:41 |
|---|---|
| Airport | Farnborough Airport (EGLF) |
Arrival
| Time | N/A |
|---|---|
| Airport | St. John's International Airport (CYYT) |
| Time | Latitude | Longitude | Altitude | Speed | Heading |
|---|---|---|---|---|---|
| 2026-04-24 13:37 | 51.28246 | -0.76307 | 227 ft | 0 kts | 179° |
| 2026-04-24 13:40 | 51.28221 | -0.76265 | 227 ft | 9 kts | 100° |
| 2026-04-24 13:40 | 51.28180 | -0.76143 | 230 ft | 13 kts | 152° |
| 2026-04-24 13:40 | 51.28079 | -0.76163 | 232 ft | 18 kts | 207° |
| 2026-04-24 13:41 | 51.27973 | -0.76453 | 233 ft | 66 kts | 242° |
| 2026-04-24 13:41 | 51.27603 | -0.77570 | 233 ft | 152 kts | 242° |
| 2026-04-24 13:41 | 51.27055 | -0.79200 | 482 ft | 174 kts | 240° |
| 2026-04-24 13:41 | 51.26446 | -0.80991 | 1009 ft | 187 kts | 240° |
| 2026-04-24 13:42 | 51.25629 | -0.82543 | 1724 ft | 181 kts | 212° |
| 2026-04-24 13:42 | 51.24553 | -0.83512 | 2391 ft | 183 kts | 208° |
| 2026-04-24 13:42 | 51.23584 | -0.84868 | 3021 ft | 187 kts | 213° |
| 2026-04-24 13:42 | 51.22340 | -0.85840 | 3008 ft | 212 kts | 199° |
| 2026-04-24 13:43 | 51.20928 | -0.86760 | 3011 ft | 225 kts | 199° |
| 2026-04-24 13:43 | 51.19508 | -0.87781 | 3005 ft | 221 kts | 200° |
| 2026-04-24 13:43 | 51.18088 | -0.88835 | 3015 ft | 227 kts | 202° |
| 2026-04-24 13:43 | 51.16657 | -0.89871 | 2994 ft | 226 kts | 201° |
| 2026-04-24 13:44 | 51.15231 | -0.90868 | 3026 ft | 220 kts | 201° |
| 2026-04-24 13:44 | 51.13789 | -0.91889 | 3004 ft | 226 kts | 203° |
| 2026-04-24 13:44 | 51.12525 | -0.93373 | 2839 ft | 235 kts | 233° |
| 2026-04-24 13:44 | 51.11783 | -0.95770 | 3325 ft | 239 kts | 246° |
| 2026-04-24 13:45 | 51.11107 | -0.98096 | 4467 ft | 230 kts | 239° |
| 2026-04-24 13:45 | 51.09934 | -0.99909 | 4764 ft | 250 kts | 203° |
| 2026-04-24 13:45 | 51.08175 | -1.00332 | 5161 ft | 262 kts | 171° |
| 2026-04-24 13:45 | 51.06402 | -0.99888 | 6202 ft | 256 kts | 168° |
| 2026-04-24 13:46 | 51.04607 | -0.99404 | 6887 ft | 266 kts | 169° |
| 2026-04-24 13:46 | 51.02749 | -0.99522 | 7721 ft | 272 kts | 193° |
| 2026-04-24 13:46 | 51.01073 | -1.00934 | 8601 ft | 280 kts | 217° |
| 2026-04-24 13:46 | 50.99915 | -1.03438 | 9450 ft | 288 kts | 244° |
| 2026-04-24 13:47 | 50.99384 | -1.06535 | 10208 ft | 295 kts | 254° |
| 2026-04-24 13:47 | 50.98955 | -1.09795 | 10386 ft | 317 kts | 257° |
| 2026-04-24 13:47 | 50.98483 | -1.13354 | 10442 ft | 341 kts | 256° |
| 2026-04-24 13:47 | 50.97954 | -1.17132 | 10737 ft | 354 kts | 255° |
| 2026-04-24 13:48 | 50.97418 | -1.20936 | 11393 ft | 354 kts | 255° |
| 2026-04-24 13:48 | 50.96885 | -1.24780 | 11976 ft | 358 kts | 255° |
| 2026-04-24 13:48 | 50.96349 | -1.28647 | 12582 ft | 360 kts | 255° |
| 2026-04-24 13:48 | 50.95804 | -1.32538 | 13165 ft | 363 kts | 256° |
| 2026-04-24 13:49 | 50.95312 | -1.36482 | 13702 ft | 367 kts | 258° |
| 2026-04-24 13:49 | 50.94822 | -1.40469 | 14258 ft | 368 kts | 255° |
| 2026-04-24 13:49 | 50.94256 | -1.44436 | 14829 ft | 369 kts | 255° |
| 2026-04-24 13:49 | 50.93731 | -1.48417 | 15415 ft | 369 kts | 257° |
| 2026-04-24 13:50 | 50.93254 | -1.52384 | 15956 ft | 371 kts | 257° |
| 2026-04-24 13:50 | 50.92753 | -1.56401 | 16520 ft | 372 kts | 256° |
| 2026-04-24 13:50 | 50.92222 | -1.60416 | 17108 ft | 373 kts | 256° |
| 2026-04-24 13:50 | 50.91693 | -1.64454 | 17699 ft | 374 kts | 256° |
| 2026-04-24 13:51 | 50.91176 | -1.68506 | 18312 ft | 375 kts | 256° |
| 2026-04-24 13:51 | 50.90654 | -1.72566 | 18879 ft | 377 kts | 256° |
| 2026-04-24 13:51 | 50.90120 | -1.76649 | 19419 ft | 379 kts | 257° |
| 2026-04-24 13:51 | 50.89584 | -1.80735 | 19955 ft | 381 kts | 257° |
| 2026-04-24 13:52 | 50.89046 | -1.84858 | 20519 ft | 382 kts | 257° |
| 2026-04-24 13:52 | 50.88506 | -1.88986 | 21073 ft | 384 kts | 258° |
| 2026-04-24 13:52 | 50.87957 | -1.93154 | 21565 ft | 388 kts | 258° |
| 2026-04-24 13:52 | 50.87404 | -1.97339 | 22111 ft | 390 kts | 258° |
| 2026-04-24 13:53 | 50.86846 | -2.01557 | 22655 ft | 392 kts | 258° |
| 2026-04-24 13:53 | 50.86285 | -2.05790 | 23183 ft | 394 kts | 258° |
| 2026-04-24 13:53 | 50.85717 | -2.10044 | 23686 ft | 397 kts | 258° |
| 2026-04-24 13:53 | 50.85143 | -2.14337 | 24096 ft | 400 kts | 258° |
| 2026-04-24 13:54 | 50.84565 | -2.18657 | 24529 ft | 402 kts | 258° |
| 2026-04-24 13:54 | 50.83983 | -2.22993 | 24960 ft | 404 kts | 258° |
| 2026-04-24 13:54 | 50.83395 | -2.27352 | 25381 ft | 406 kts | 258° |
| 2026-04-24 13:54 | 50.82802 | -2.31735 | 25801 ft | 409 kts | 258° |
| 2026-04-24 13:55 | 50.82204 | -2.36145 | 26203 ft | 411 kts | 258° |
| 2026-04-24 13:55 | 50.81600 | -2.40587 | 26577 ft | 415 kts | 258° |
| 2026-04-24 13:55 | 50.80990 | -2.45060 | 26997 ft | 417 kts | 258° |
| 2026-04-24 13:55 | 50.80434 | -2.49567 | 27371 ft | 419 kts | 262° |
| 2026-04-24 13:56 | 50.80276 | -2.54180 | 27776 ft | 422 kts | 270° |
| 2026-04-24 13:56 | 50.80542 | -2.58810 | 28191 ft | 425 kts | 278° |
| 2026-04-24 13:56 | 50.81226 | -2.63380 | 28590 ft | 428 kts | 284° |
| 2026-04-24 13:56 | 50.82025 | -2.67868 | 28984 ft | 431 kts | 284° |
| 2026-04-24 13:57 | 50.82817 | -2.72451 | 29386 ft | 433 kts | 284° |
| 2026-04-24 13:57 | 50.83613 | -2.77063 | 29782 ft | 436 kts | 284° |
| 2026-04-24 13:57 | 50.84423 | -2.81699 | 30167 ft | 438 kts | 284° |
| 2026-04-24 13:57 | 50.85238 | -2.86363 | 30486 ft | 441 kts | 284° |
| 2026-04-24 13:58 | 50.86050 | -2.91070 | 30792 ft | 444 kts | 284° |
| 2026-04-24 13:58 | 50.86863 | -2.95801 | 31101 ft | 447 kts | 284° |
| 2026-04-24 13:58 | 50.87680 | -3.00546 | 31533 ft | 446 kts | 284° |
| 2026-04-24 13:58 | 50.88493 | -3.05273 | 32011 ft | 444 kts | 283° |
| 2026-04-24 13:59 | 50.89301 | -3.10002 | 32440 ft | 444 kts | 283° |
| 2026-04-24 13:59 | 50.90106 | -3.14723 | 32888 ft | 444 kts | 283° |
| 2026-04-24 13:59 | 50.90909 | -3.19441 | 33342 ft | 443 kts | 283° |
| 2026-04-24 13:59 | 50.91710 | -3.24157 | 33799 ft | 443 kts | 283° |
| 2026-04-24 14:00 | 50.92507 | -3.28866 | 34260 ft | 442 kts | 283° |
| 2026-04-24 14:00 | 50.93301 | -3.33578 | 34586 ft | 444 kts | 283° |
| 2026-04-24 14:00 | 50.94100 | -3.38324 | 34935 ft | 445 kts | 283° |
| 2026-04-24 14:00 | 50.94895 | -3.43058 | 35361 ft | 444 kts | 283° |
| 2026-04-24 14:01 | 50.95687 | -3.47788 | 35772 ft | 444 kts | 283° |
| 2026-04-24 14:01 | 50.96466 | -3.52454 | 36166 ft | 443 kts | 283° |
| 2026-04-24 14:01 | 50.97252 | -3.57176 | 36568 ft | 443 kts | 282° |
| 2026-04-24 14:01 | 50.98036 | -3.61903 | 36972 ft | 442 kts | 282° |
| 2026-04-24 14:02 | 50.98818 | -3.66626 | 37369 ft | 442 kts | 282° |
| 2026-04-24 14:02 | 50.99598 | -3.71345 | 37764 ft | 441 kts | 282° |
| 2026-04-24 14:02 | 51.00373 | -3.76055 | 38168 ft | 441 kts | 282° |
| 2026-04-24 14:02 | 51.01146 | -3.80765 | 38546 ft | 441 kts | 282° |
| 2026-04-24 14:03 | 51.01917 | -3.85477 | 38890 ft | 441 kts | 282° |
| 2026-04-24 14:03 | 51.02688 | -3.90196 | 39203 ft | 441 kts | 282° |
| 2026-04-24 14:03 | 51.03458 | -3.94922 | 39471 ft | 442 kts | 282° |
| 2026-04-24 14:03 | 51.04226 | -3.99655 | 39752 ft | 442 kts | 282° |
| 2026-04-24 14:04 | 51.04991 | -4.04381 | 40045 ft | 442 kts | 282° |
| 2026-04-24 14:04 | 51.05757 | -4.09123 | 40342 ft | 442 kts | 282° |
| 2026-04-24 14:04 | 51.06520 | -4.13864 | 40637 ft | 443 kts | 282° |
| 2026-04-24 14:04 | 51.07282 | -4.18612 | 40907 ft | 443 kts | 282° |
| 2026-04-24 14:05 | 51.08042 | -4.23362 | 41212 ft | 443 kts | 282° |
| 2026-04-24 14:05 | 51.08802 | -4.28120 | 41459 ft | 445 kts | 282° |
| 2026-04-24 14:05 | 51.09564 | -4.32909 | 41658 ft | 447 kts | 282° |
| 2026-04-24 14:05 | 51.10317 | -4.37655 | 41939 ft | 448 kts | 282° |
| 2026-04-24 14:06 | 51.11077 | -4.42454 | 42224 ft | 448 kts | 282° |
| 2026-04-24 14:06 | 51.11835 | -4.47260 | 42496 ft | 448 kts | 282° |
| 2026-04-24 14:06 | 51.12594 | -4.52083 | 42767 ft | 449 kts | 282° |
| 2026-04-24 14:06 | 51.13351 | -4.56910 | 43035 ft | 449 kts | 282° |
| 2026-04-24 14:07 | 51.14106 | -4.61742 | 43243 ft | 451 kts | 282° |
| 2026-04-24 14:07 | 51.14867 | -4.66626 | 43229 ft | 458 kts | 282° |
| 2026-04-24 14:07 | 51.16416 | -4.76605 | 43232 ft | 470 kts | 282° |
| 2026-04-24 14:08 | 51.17994 | -4.86831 | 43229 ft | 481 kts | 282° |
| 2026-04-24 14:08 | 51.19590 | -4.97234 | 43229 ft | 484 kts | 282° |
| 2026-04-24 14:09 | 51.21179 | -5.07673 | 43231 ft | 484 kts | 282° |
| 2026-04-24 14:09 | 51.22751 | -5.18064 | 43228 ft | 485 kts | 281° |
| 2026-04-24 14:10 | 51.24320 | -5.28515 | 43226 ft | 485 kts | 282° |
| 2026-04-24 14:10 | 51.25883 | -5.38979 | 43222 ft | 485 kts | 281° |
| 2026-04-24 14:11 | 51.27435 | -5.49443 | 43218 ft | 484 kts | 281° |
| 2026-04-24 14:12 | 51.29748 | -5.65170 | 43220 ft | 484 kts | 281° |
| 2026-04-24 14:12 | 51.31277 | -5.75666 | 43231 ft | 485 kts | 281° |
| 2026-04-24 14:13 | 51.32795 | -5.86140 | 43229 ft | 486 kts | 281° |
| 2026-04-24 14:13 | 51.34310 | -5.96673 | 43223 ft | 486 kts | 281° |
| 2026-04-24 14:14 | 51.35816 | -6.07219 | 43223 ft | 486 kts | 281° |
| 2026-04-24 14:14 | 51.38058 | -6.23046 | 43238 ft | 486 kts | 281° |
| 2026-04-24 14:15 | 51.39535 | -6.33574 | 43211 ft | 487 kts | 280° |
| 2026-04-24 14:15 | 51.41012 | -6.44168 | 43221 ft | 487 kts | 280° |
| 2026-04-24 14:16 | 51.42482 | -6.54783 | 43218 ft | 488 kts | 280° |
| 2026-04-24 14:17 | 51.44665 | -6.70702 | 43217 ft | 487 kts | 280° |
| 2026-04-24 14:17 | 51.46834 | -6.86689 | 43218 ft | 489 kts | 280° |
| 2026-04-24 14:18 | 51.48267 | -6.97356 | 43214 ft | 489 kts | 279° |
| 2026-04-24 14:18 | 51.49692 | -7.08033 | 43213 ft | 489 kts | 279° |
| 2026-04-24 14:19 | 51.50624 | -7.16977 | 43205 ft | 488 kts | 276° |
| 2026-04-24 14:19 | 51.51647 | -7.27766 | 43218 ft | 491 kts | 276° |
| 2026-04-24 14:20 | 51.52701 | -7.38590 | 43205 ft | 490 kts | 276° |
| 2026-04-24 14:20 | 51.53717 | -7.49411 | 43204 ft | 490 kts | 276° |
| 2026-04-24 14:21 | 51.54744 | -7.60260 | 43202 ft | 490 kts | 276° |
| 2026-04-24 14:21 | 51.55747 | -7.71102 | 43201 ft | 490 kts | 276° |
| 2026-04-24 14:22 | 51.56743 | -7.81895 | 43195 ft | 491 kts | 276° |
| 2026-04-24 14:23 | 51.58223 | -7.98207 | 43184 ft | 491 kts | 276° |
| 2026-04-24 14:23 | 51.59199 | -8.09092 | 43186 ft | 491 kts | 276° |
| 2026-04-24 14:24 | 51.60164 | -8.19988 | 43181 ft | 491 kts | 276° |
| 2026-04-24 14:24 | 51.61120 | -8.30888 | 43176 ft | 493 kts | 275° |
| 2026-04-24 14:25 | 51.62068 | -8.41813 | 43171 ft | 493 kts | 275° |
| 2026-04-24 14:25 | 51.62998 | -8.52666 | 43173 ft | 492 kts | 275° |
| 2026-04-24 14:26 | 51.63925 | -8.63603 | 43176 ft | 493 kts | 275° |
| 2026-04-24 14:26 | 51.64842 | -8.74534 | 43188 ft | 494 kts | 274° |
| 2026-04-24 14:27 | 51.65751 | -8.85512 | 43180 ft | 494 kts | 274° |
| 2026-04-24 14:27 | 51.66652 | -8.96502 | 43182 ft | 494 kts | 274° |
| 2026-04-24 14:28 | 51.67541 | -9.07485 | 43183 ft | 494 kts | 274° |
| 2026-04-24 14:28 | 51.68419 | -9.18464 | 43171 ft | 494 kts | 274° |
| 2026-04-24 14:29 | 51.69289 | -9.29477 | 43170 ft | 496 kts | 274° |
| 2026-04-24 14:29 | 51.70145 | -9.40441 | 43161 ft | 496 kts | 274° |
| 2026-04-24 14:30 | 51.70995 | -9.51472 | 43161 ft | 496 kts | 274° |
| 2026-04-24 14:30 | 51.71836 | -9.62513 | 43162 ft | 496 kts | 274° |
| 2026-04-24 14:31 | 51.72665 | -9.73558 | 43166 ft | 496 kts | 274° |
| 2026-04-24 14:31 | 51.73489 | -9.84660 | 43154 ft | 497 kts | 274° |
| 2026-04-24 14:32 | 51.74300 | -9.95733 | 43156 ft | 498 kts | 274° |
| 2026-04-24 14:32 | 51.75101 | -10.06813 | 43155 ft | 497 kts | 273° |
| 2026-04-24 14:33 | 51.75890 | -10.17892 | 43148 ft | 497 kts | 273° |
| 2026-04-24 14:33 | 51.76671 | -10.28982 | 43147 ft | 497 kts | 273° |
| 2026-04-24 14:34 | 51.77440 | -10.40079 | 43147 ft | 497 kts | 273° |
| 2026-04-24 14:34 | 51.78199 | -10.51166 | 43149 ft | 497 kts | 273° |
| 2026-04-24 14:35 | 51.78941 | -10.62186 | 43142 ft | 497 kts | 273° |
| 2026-04-24 14:35 | 51.79684 | -10.73354 | 43149 ft | 497 kts | 273° |
| 2026-04-24 14:36 | 51.80407 | -10.84397 | 43137 ft | 498 kts | 273° |
| 2026-04-24 14:36 | 51.81125 | -10.95516 | 43136 ft | 497 kts | 272° |
| 2026-04-24 14:37 | 51.81831 | -11.06630 | 43137 ft | 497 kts | 272° |
| 2026-04-24 14:37 | 51.82529 | -11.17763 | 43135 ft | 498 kts | 272° |
| 2026-04-24 14:38 | 51.83215 | -11.28893 | 43131 ft | 499 kts | 272° |
| 2026-04-24 14:38 | 51.83891 | -11.40040 | 43128 ft | 498 kts | 272° |
| 2026-04-24 14:39 | 51.84557 | -11.51181 | 43123 ft | 498 kts | 272° |
| 2026-04-24 14:39 | 51.85212 | -11.62333 | 43123 ft | 498 kts | 272° |
| 2026-04-24 14:40 | 51.85856 | -11.73479 | 43125 ft | 498 kts | 272° |
| 2026-04-24 14:40 | 51.86492 | -11.84649 | 43126 ft | 498 kts | 272° |
| 2026-04-24 14:41 | 51.87116 | -11.95816 | 43126 ft | 498 kts | 272° |
| 2026-04-24 14:41 | 51.87729 | -12.06990 | 43118 ft | 498 kts | 272° |
| 2026-04-24 14:42 | 51.88328 | -12.18083 | 43116 ft | 498 kts | 272° |
| 2026-04-24 14:42 | 51.88921 | -12.29263 | 43125 ft | 500 kts | 272° |
| 2026-04-24 14:43 | 51.89505 | -12.40492 | 43114 ft | 499 kts | 272° |
| 2026-04-24 14:43 | 51.90077 | -12.51701 | 43112 ft | 499 kts | 271° |
| 2026-04-24 14:44 | 51.90639 | -12.62906 | 43110 ft | 499 kts | 271° |
| 2026-04-24 14:44 | 51.91191 | -12.74131 | 43110 ft | 499 kts | 271° |
| 2026-04-24 14:45 | 51.91731 | -12.85344 | 43102 ft | 500 kts | 271° |
| 2026-04-24 14:45 | 51.92261 | -12.96570 | 43104 ft | 500 kts | 271° |
| 2026-04-24 14:46 | 51.92780 | -13.07792 | 43103 ft | 500 kts | 271° |
| 2026-04-24 14:46 | 51.93286 | -13.18952 | 43098 ft | 499 kts | 271° |
| 2026-04-24 14:47 | 51.93784 | -13.30185 | 43119 ft | 500 kts | 271° |
| 2026-04-24 14:47 | 51.94271 | -13.41415 | 43083 ft | 500 kts | 271° |
| 2026-04-24 14:48 | 51.94748 | -13.52659 | 43081 ft | 500 kts | 271° |
| 2026-04-24 14:48 | 51.95215 | -13.63904 | 43078 ft | 500 kts | 271° |
| 2026-04-24 14:49 | 51.95670 | -13.75158 | 43079 ft | 500 kts | 271° |
| 2026-04-24 14:49 | 51.96114 | -13.86370 | 43079 ft | 501 kts | 271° |
| 2026-04-24 14:50 | 51.96548 | -13.97629 | 43083 ft | 500 kts | 271° |
| 2026-04-24 14:50 | 51.96972 | -14.08889 | 43076 ft | 500 kts | 270° |
| 2026-04-24 14:51 | 51.97385 | -14.20153 | 43073 ft | 500 kts | 270° |
| 2026-04-24 14:51 | 51.97787 | -14.31421 | 43072 ft | 500 kts | 270° |
| 2026-04-24 14:52 | 51.98179 | -14.42695 | 43065 ft | 500 kts | 270° |
| 2026-04-24 14:52 | 51.98560 | -14.53967 | 43067 ft | 500 kts | 270° |
| 2026-04-24 14:53 | 51.98929 | -14.65246 | 43064 ft | 500 kts | 270° |
| 2026-04-24 14:53 | 51.99289 | -14.76515 | 43064 ft | 500 kts | 270° |
| 2026-04-24 14:54 | 51.99637 | -14.87790 | 43052 ft | 501 kts | 270° |
| 2026-04-24 14:54 | 51.99975 | -14.99065 | 43053 ft | 500 kts | 270° |
| 2026-04-24 14:55 | 52.00198 | -15.08442 | 43055 ft | 500 kts | 269° |